createdAt,value
2023-03-24T00:00:00.582Z,0.0
2023-03-24T00:05:00.589Z,0.3
2023-03-24T00:10:00.596Z,0.0
2023-03-24T00:15:00.577Z,0.0
2023-03-24T00:20:00.587Z,0.1
2023-03-24T00:25:00.540Z,0.1
2023-03-24T00:30:00.582Z,0.0
2023-03-24T00:35:00.598Z,0.0
2023-03-24T00:40:00.589Z,0.0
2023-03-24T00:45:00.551Z,0.0
2023-03-24T00:50:00.607Z,0.0
2023-03-24T00:55:00.548Z,0.2
2023-03-24T01:00:00.623Z,0.0
2023-03-24T01:05:00.643Z,0.5
2023-03-24T01:10:00.538Z,0.9
2023-03-24T01:15:00.681Z,0.6
2023-03-24T01:20:00.585Z,0.4
2023-03-24T01:25:00.608Z,1.9
2023-03-24T01:30:00.587Z,2.3
2023-03-24T01:35:00.541Z,1.7
2023-03-24T01:40:00.567Z,0.5
2023-03-24T01:45:00.599Z,0.2
2023-03-24T01:50:00.626Z,0.6
2023-03-24T01:55:00.530Z,0.9
2023-03-24T02:00:00.589Z,1.3
2023-03-24T02:05:00.535Z,1.8
2023-03-24T02:10:00.608Z,0.8
2023-03-24T02:15:00.603Z,2.1
2023-03-24T02:20:00.623Z,0.2
2023-03-24T02:25:00.538Z,2.0
2023-03-24T02:30:00.599Z,1.1
2023-03-24T02:35:00.593Z,2.7
2023-03-24T02:40:00.595Z,0.5
2023-03-24T02:45:00.613Z,2.8
2023-03-24T02:50:00.611Z,1.4
2023-03-24T02:55:00.595Z,2.7
2023-03-24T03:00:00.572Z,1.3
2023-03-24T03:05:00.528Z,2.5
2023-03-24T03:10:00.624Z,3.1
2023-03-24T03:15:00.542Z,4.6
2023-03-24T03:20:00.609Z,3.3
2023-03-24T03:25:00.601Z,1.4
2023-03-24T03:30:00.573Z,2.1
2023-03-24T03:35:00.607Z,2.1
2023-03-24T03:40:00.628Z,2.7
2023-03-24T03:45:00.549Z,3.2
2023-03-24T03:50:00.590Z,3.6
2023-03-24T03:55:00.651Z,2.1
2023-03-24T04:00:00.530Z,2.5
2023-03-24T04:05:07.117Z,2.6
2023-03-24T04:10:00.588Z,4.1
2023-03-24T04:15:00.583Z,2.1
2023-03-24T04:20:00.600Z,3.2
2023-03-24T04:25:00.587Z,4.6
2023-03-24T04:30:00.659Z,3.7
2023-03-24T04:35:00.592Z,3.6
2023-03-24T04:40:00.565Z,4.5
2023-03-24T04:45:00.547Z,5.2
2023-03-24T04:50:01.213Z,4.1
2023-03-24T04:55:00.567Z,3.5
2023-03-24T05:00:00.581Z,2.0
2023-03-24T05:05:00.557Z,3.3
2023-03-24T05:10:00.633Z,5.5
2023-03-24T05:15:00.618Z,4.0
2023-03-24T05:20:00.588Z,1.7
2023-03-24T05:25:00.601Z,2.0
2023-03-24T05:30:00.601Z,4.0
2023-03-24T05:35:00.548Z,3.6
2023-03-24T05:40:00.592Z,3.3
2023-03-24T05:45:00.625Z,7.1
2023-03-24T05:50:00.549Z,8.9
2023-03-24T05:55:00.596Z,5.1
2023-03-24T06:00:00.589Z,4.8
2023-03-24T06:05:00.616Z,4.7
2023-03-24T06:10:00.635Z,6.4
2023-03-24T06:15:00.585Z,5.7
2023-03-24T06:20:00.575Z,8.2
2023-03-24T06:25:00.583Z,4.7
2023-03-24T06:30:00.597Z,9.2
2023-03-24T06:35:00.591Z,10.0
2023-03-24T06:40:00.608Z,5.2
2023-03-24T06:45:00.582Z,7.2
2023-03-24T06:50:00.629Z,5.4
2023-03-24T06:55:00.603Z,4.1
2023-03-24T07:00:00.558Z,3.9
2023-03-24T07:05:00.578Z,5.3
2023-03-24T07:10:00.622Z,5.0
2023-03-24T07:15:00.618Z,4.6
2023-03-24T07:20:00.652Z,5.1
2023-03-24T07:25:00.549Z,6.4
2023-03-24T07:30:00.637Z,8.6
2023-03-24T07:35:00.616Z,7.4
2023-03-24T07:40:00.607Z,5.7
2023-03-24T07:45:00.564Z,8.4
2023-03-24T07:50:00.636Z,9.0
2023-03-24T07:55:00.659Z,13.0
2023-03-24T08:00:00.547Z,8.2
2023-03-24T08:05:00.577Z,11.2
2023-03-24T08:10:00.662Z,8.4
2023-03-24T08:15:00.594Z,11.7
2023-03-24T08:20:04.777Z,7.5
2023-03-24T08:25:00.574Z,12.5
2023-03-24T08:30:00.644Z,6.9
2023-03-24T08:35:00.664Z,11.0
2023-03-24T08:40:00.622Z,12.5
2023-03-24T08:45:00.549Z,7.8
2023-03-24T08:50:00.631Z,12.9
2023-03-24T08:55:00.559Z,8.4
2023-03-24T09:00:00.624Z,9.6
2023-03-24T09:05:00.684Z,13.5
2023-03-24T09:10:00.598Z,7.6
2023-03-24T09:15:00.562Z,10.6
2023-03-24T09:20:02.517Z,12.6
2023-03-24T09:25:00.598Z,11.3
2023-03-24T09:30:00.625Z,12.7
2023-03-24T09:35:00.555Z,11.8
2023-03-24T09:40:00.637Z,13.3
2023-03-24T09:45:00.544Z,10.4
2023-03-24T09:50:00.601Z,15.0
2023-03-24T09:55:00.550Z,13.3
2023-03-24T10:00:00.610Z,12.3
2023-03-24T10:05:00.654Z,20.7
2023-03-24T10:10:00.610Z,13.5
2023-03-24T10:15:00.556Z,14.3
2023-03-24T10:20:00.759Z,14.6
2023-03-24T10:25:00.599Z,9.9
2023-03-24T10:30:00.604Z,10.8
2023-03-24T10:35:00.758Z,14.8
2023-03-24T10:40:00.602Z,13.9
2023-03-24T10:45:00.638Z,12.8
2023-03-24T10:50:00.640Z,12.3
2023-03-24T10:55:00.635Z,14.7
2023-03-24T11:00:00.652Z,12.4
2023-03-24T11:05:00.616Z,12.4
2023-03-24T11:10:00.543Z,13.9
2023-03-24T11:15:20.030Z,18.8
2023-03-24T11:20:00.591Z,17.2
2023-03-24T11:25:00.678Z,11.7
2023-03-24T11:30:00.587Z,16.8
2023-03-24T11:35:00.629Z,16.0
2023-03-24T11:40:00.654Z,15.0
2023-03-24T11:45:00.739Z,13.9
2023-03-24T11:50:00.606Z,11.8
2023-03-24T11:55:00.610Z,14.6
2023-03-24T12:00:00.673Z,14.4
2023-03-24T12:05:00.665Z,16.3
2023-03-24T12:10:00.614Z,12.6
2023-03-24T12:15:00.592Z,16.3
2023-03-24T12:20:00.609Z,15.9
2023-03-24T12:25:00.585Z,14.2
2023-03-24T12:30:00.620Z,15.7
2023-03-24T12:35:00.632Z,12.0
2023-03-24T12:40:00.614Z,13.3
2023-03-24T12:45:00.629Z,12.6
2023-03-24T12:50:00.555Z,10.0
2023-03-24T12:55:00.658Z,15.3
2023-03-24T13:00:00.620Z,12.7
2023-03-24T13:05:00.535Z,14.3
2023-03-24T13:10:00.592Z,11.9
2023-03-24T13:15:00.607Z,11.7
2023-03-24T13:20:00.617Z,15.7
2023-03-24T13:25:00.616Z,17.3
2023-03-24T13:30:00.614Z,11.3
2023-03-24T13:35:00.607Z,14.4
2023-03-24T13:40:00.590Z,14.4
2023-03-24T13:45:00.599Z,11.8
2023-03-24T13:50:00.610Z,8.2
2023-03-24T13:55:00.552Z,15.0
2023-03-24T14:00:00.637Z,12.8
2023-03-24T14:05:00.562Z,12.5
2023-03-24T14:10:00.597Z,14.1
2023-03-24T14:15:00.609Z,11.9
2023-03-24T14:20:00.553Z,12.2
2023-03-24T14:25:00.621Z,9.6
2023-03-24T14:30:00.577Z,8.4
2023-03-24T14:35:00.699Z,10.1
2023-03-24T14:40:00.658Z,9.9
2023-03-24T14:45:00.591Z,5.3
2023-03-24T14:50:00.616Z,10.8
2023-03-24T14:55:00.561Z,11.0
2023-03-24T15:00:00.717Z,11.9
2023-03-24T15:05:00.604Z,9.2
2023-03-24T15:10:00.613Z,11.1
2023-03-24T15:15:03.656Z,8.8
2023-03-24T15:20:00.602Z,11.7
2023-03-24T15:25:00.568Z,5.8
2023-03-24T15:30:00.613Z,13.7
2023-03-24T15:35:00.714Z,14.2
2023-03-24T15:40:15.530Z,10.1
2023-03-24T15:45:00.540Z,11.9
2023-03-24T15:50:00.615Z,9.6
2023-03-24T15:55:00.559Z,12.1
2023-03-24T16:00:00.614Z,7.3
2023-03-24T16:05:11.284Z,8.4
2023-03-24T16:10:00.698Z,10.9
2023-03-24T16:15:00.581Z,8.9
2023-03-24T16:20:00.691Z,11.1
2023-03-24T16:25:00.771Z,5.2
2023-03-24T16:30:00.549Z,6.1
2023-03-24T16:35:00.689Z,3.4
2023-03-24T16:40:03.859Z,3.7
2023-03-24T16:45:00.611Z,3.5
2023-03-24T16:50:00.691Z,2.2
2023-03-24T16:55:00.705Z,3.1
2023-03-24T17:00:00.616Z,4.5
2023-03-24T17:05:00.949Z,7.3
2023-03-24T17:10:00.563Z,3.5
2023-03-24T17:15:00.597Z,3.9
2023-03-24T17:20:05.656Z,2.8
2023-03-24T17:25:00.548Z,2.2
2023-03-24T17:30:00.586Z,2.2
2023-03-24T17:35:00.604Z,3.4
2023-03-24T17:40:00.663Z,2.8
2023-03-24T17:45:00.646Z,4.4
2023-03-24T17:50:00.674Z,3.9
2023-03-24T17:55:00.550Z,3.7
2023-03-24T18:00:00.614Z,4.5
2023-03-24T18:05:00.645Z,6.2
2023-03-24T18:10:00.621Z,6.7
2023-03-24T18:15:00.758Z,3.2
2023-03-24T18:20:00.750Z,5.8
2023-03-24T18:25:00.816Z,3.0
2023-03-24T18:30:00.725Z,4.4
2023-03-24T18:35:00.627Z,0.9
2023-03-24T18:40:00.834Z,1.0
2023-03-24T18:45:00.589Z,0.7
2023-03-24T18:50:00.964Z,1.9
2023-03-24T18:55:00.545Z,6.4
2023-03-24T19:00:01.074Z,12.5
2023-03-24T19:05:00.579Z,13.3
2023-03-24T19:10:00.800Z,14.6
2023-03-24T19:15:00.550Z,14.8
2023-03-24T19:20:00.588Z,9.1
2023-03-24T19:25:00.713Z,7.1
2023-03-24T19:30:00.608Z,3.7
2023-03-24T19:35:00.586Z,3.0
2023-03-24T19:40:00.702Z,3.9
2023-03-24T19:45:00.595Z,4.4
2023-03-24T19:50:03.495Z,4.7
2023-03-24T19:55:00.692Z,6.8
2023-03-24T20:00:00.752Z,9.5
2023-03-24T20:05:00.608Z,12.1
2023-03-24T20:10:00.751Z,8.4
2023-03-24T20:15:00.618Z,5.9
2023-03-24T20:20:00.983Z,9.2
2023-03-24T20:25:00.644Z,7.2
2023-03-24T20:30:00.545Z,9.5
2023-03-24T20:35:00.604Z,8.2
2023-03-24T20:40:00.726Z,6.9
2023-03-24T20:45:00.622Z,6.4
2023-03-24T20:50:00.603Z,8.6
2023-03-24T20:55:00.617Z,8.1
2023-03-24T21:00:00.632Z,7.0
2023-03-24T21:05:00.566Z,8.4
2023-03-24T21:10:00.640Z,6.3
2023-03-24T21:15:00.535Z,4.0
2023-03-24T21:20:00.636Z,3.7
2023-03-24T21:25:00.752Z,4.6
2023-03-24T21:30:00.604Z,3.8
2023-03-24T21:35:00.588Z,4.2
2023-03-24T21:40:00.723Z,5.1
2023-03-24T21:45:00.597Z,6.0
2023-03-24T21:50:00.605Z,3.1
2023-03-24T21:55:00.589Z,5.0
2023-03-24T22:00:00.632Z,3.3
2023-03-24T22:05:00.542Z,4.0
2023-03-24T22:10:00.589Z,3.9
2023-03-24T22:15:00.533Z,2.2
2023-03-24T22:20:00.619Z,3.1
2023-03-24T22:25:00.611Z,2.6
2023-03-24T22:30:00.583Z,2.3
2023-03-24T22:35:00.560Z,1.5
2023-03-24T22:40:00.584Z,2.2
2023-03-24T22:45:00.533Z,2.5
2023-03-24T22:50:00.634Z,1.6
2023-03-24T22:55:00.549Z,3.4
2023-03-24T23:00:00.614Z,2.9
2023-03-24T23:05:00.572Z,2.1
2023-03-24T23:10:00.568Z,2.2
2023-03-24T23:15:00.595Z,3.0
2023-03-24T23:20:00.649Z,3.3
2023-03-24T23:25:03.330Z,3.3
2023-03-24T23:30:00.573Z,2.7
2023-03-24T23:35:00.579Z,3.7
2023-03-24T23:40:00.639Z,4.2
2023-03-24T23:45:00.539Z,2.7
2023-03-24T23:50:00.601Z,3.0
2023-03-24T23:55:00.570Z,3.0
